createdAt,value
2022-12-03T00:01:20.100Z,24.52
2022-12-03T00:03:47.669Z,36.22
2022-12-03T00:06:15.403Z,26.70
2022-12-03T00:08:42.997Z,28.13
2022-12-03T00:11:10.576Z,26.95
2022-12-03T00:13:38.057Z,28.63
2022-12-03T00:16:05.756Z,26.45
2022-12-03T00:18:33.378Z,24.73
2022-12-03T00:21:00.866Z,28.10
2022-12-03T00:23:28.485Z,23.33
2022-12-03T00:25:55.965Z,30.25
2022-12-03T00:28:23.569Z,31.40
2022-12-03T00:30:54.108Z,27.23
2022-12-03T00:33:22.149Z,22.92
2022-12-03T00:35:49.816Z,25.17
2022-12-03T00:38:17.343Z,23.30
2022-12-03T00:40:44.762Z,21.90
2022-12-03T00:43:12.589Z,28.98
2022-12-03T00:45:40.133Z,24.52
2022-12-03T00:48:07.669Z,26.27
2022-12-03T00:50:35.262Z,23.67
2022-12-03T00:53:02.923Z,21.20
2022-12-03T00:55:30.503Z,25.85
2022-12-03T00:57:58.226Z,21.58
2022-12-03T01:00:25.800Z,27.45
2022-12-03T01:02:53.486Z,26.83
2022-12-03T01:05:21.094Z,24.80
2022-12-03T01:07:48.646Z,24.55
2022-12-03T01:10:16.389Z,29.95
2022-12-03T01:12:44.142Z,27.05
2022-12-03T01:15:12.039Z,29.98
2022-12-03T01:17:39.629Z,32.42
2022-12-03T01:20:08.892Z,22.70
2022-12-03T01:22:36.464Z,30.73
2022-12-03T01:25:04.811Z,24.73
2022-12-03T01:27:32.356Z,25.35
2022-12-03T01:29:59.955Z,26.63
2022-12-03T01:32:27.689Z,25.88
2022-12-03T01:34:56.160Z,26.10
2022-12-03T01:37:25.658Z,28.35
2022-12-03T01:39:53.235Z,31.67
2022-12-03T01:42:24.390Z,30.30
2022-12-03T01:44:55.459Z,33.00
2022-12-03T01:47:29.938Z,31.00
2022-12-03T01:50:01.814Z,36.17
2022-12-03T01:52:32.352Z,34.10
2022-12-03T01:55:02.550Z,30.23
2022-12-03T01:57:42.288Z,36.20
2022-12-03T02:00:21.797Z,32.55
2022-12-03T02:03:07.364Z,29.95
2022-12-03T02:05:34.868Z,38.47
2022-12-03T02:08:02.432Z,38.55
2022-12-03T02:10:34.301Z,34.28
2022-12-03T02:13:06.110Z,39.83
2022-12-03T02:15:34.055Z,36.08
2022-12-03T02:18:02.160Z,37.35
2022-12-03T02:20:33.701Z,32.05
2022-12-03T02:23:33.043Z,33.80
2022-12-03T02:26:00.621Z,37.60
2022-12-03T02:28:28.540Z,32.70
2022-12-03T02:30:56.558Z,33.83
2022-12-03T02:33:24.106Z,31.55
2022-12-03T02:35:51.625Z,32.20
2022-12-03T02:38:23.276Z,33.20
2022-12-03T02:40:54.513Z,33.95
2022-12-03T02:43:22.904Z,31.08
2022-12-03T02:45:54.078Z,36.50
2022-12-03T02:48:26.923Z,32.45
2022-12-03T02:50:57.354Z,33.50
2022-12-03T02:53:32.133Z,35.28
2022-12-03T02:56:01.808Z,29.40
2022-12-03T02:58:31.474Z,33.58
2022-12-03T03:01:00.855Z,33.50
2022-12-03T03:03:30.603Z,29.92
2022-12-03T03:06:00.077Z,29.08
2022-12-03T03:08:28.905Z,26.67
2022-12-03T03:10:57.384Z,31.33
2022-12-03T03:13:25.043Z,31.77
2022-12-03T03:15:52.549Z,27.17
2022-12-03T03:18:20.380Z,29.90
2022-12-03T03:20:48.144Z,26.63
2022-12-03T03:23:21.469Z,27.38
2022-12-03T03:26:02.443Z,26.75
2022-12-03T03:28:31.150Z,30.17
2022-12-03T03:31:02.543Z,29.73
2022-12-03T03:33:30.984Z,31.38
2022-12-03T03:36:00.448Z,25.65
2022-12-03T03:38:30.139Z,22.23
2022-12-03T03:40:59.136Z,23.30
2022-12-03T03:43:26.751Z,22.17
2022-12-03T03:45:54.702Z,23.77
2022-12-03T03:48:23.050Z,37.67
2022-12-03T03:50:52.007Z,23.25
2022-12-03T03:53:21.417Z,22.10
2022-12-03T03:55:49.336Z,25.20
2022-12-03T03:58:17.256Z,21.38
2022-12-03T04:00:45.635Z,25.25
2022-12-03T04:03:13.599Z,26.60
2022-12-03T04:05:41.237Z,26.48
2022-12-03T04:08:08.812Z,24.33
2022-12-03T04:10:55.210Z,22.67
2022-12-03T04:13:23.113Z,24.30
2022-12-03T04:15:50.719Z,21.38
2022-12-03T04:18:37.018Z,32.25
2022-12-03T04:21:23.111Z,23.05
2022-12-03T04:23:50.909Z,28.85
2022-12-03T04:26:37.019Z,26.10
2022-12-03T04:29:04.690Z,27.33
2022-12-03T04:31:51.009Z,29.50
2022-12-03T04:34:37.193Z,27.50
2022-12-03T04:37:05.221Z,30.20
2022-12-03T04:39:33.076Z,27.30
2022-12-03T04:42:01.121Z,30.65
2022-12-03T04:44:36.285Z,33.45
2022-12-03T04:47:05.198Z,31.05
2022-12-03T04:49:33.364Z,31.98
2022-12-03T04:52:00.889Z,34.08
2022-12-03T04:54:29.022Z,30.35
2022-12-03T04:56:56.771Z,34.78
2022-12-03T04:59:24.325Z,29.13
2022-12-03T05:01:51.885Z,34.67
2022-12-03T05:04:19.481Z,43.50
2022-12-03T05:06:47.362Z,38.53
2022-12-03T05:09:15.060Z,38.30
2022-12-03T05:11:43.022Z,40.55
2022-12-03T05:14:11.415Z,40.85
2022-12-03T05:16:39.171Z,37.80
2022-12-03T05:19:08.003Z,40.60
2022-12-03T05:21:35.916Z,41.60
2022-12-03T05:24:03.650Z,42.03
2022-12-03T05:26:31.104Z,45.25
2022-12-03T05:28:58.529Z,42.75
2022-12-03T05:31:26.080Z,43.00
2022-12-03T05:33:55.248Z,44.88
2022-12-03T05:36:22.778Z,42.63
2022-12-03T05:38:50.238Z,43.75
2022-12-03T05:41:36.334Z,40.08
2022-12-03T05:44:03.885Z,49.38
2022-12-03T05:46:32.604Z,46.83
2022-12-03T05:49:00.286Z,40.28
2022-12-03T05:51:27.891Z,42.10
2022-12-03T05:53:57.757Z,42.25
2022-12-03T05:56:25.214Z,44.67
2022-12-03T05:58:52.630Z,44.22
2022-12-03T06:01:22.009Z,42.22
2022-12-03T06:03:49.597Z,39.03
2022-12-03T06:06:17.422Z,41.35
2022-12-03T06:08:44.805Z,35.45
2022-12-03T06:11:12.279Z,46.33
2022-12-03T06:13:39.779Z,37.65
2022-12-03T06:16:07.596Z,38.28
2022-12-03T06:18:35.109Z,36.05
2022-12-03T06:21:02.554Z,43.40
2022-12-03T06:23:30.202Z,35.65
2022-12-03T06:25:57.806Z,37.75
2022-12-03T06:28:25.298Z,34.13
2022-12-03T06:30:52.848Z,33.97
2022-12-03T06:33:20.299Z,30.88
2022-12-03T06:35:47.699Z,37.05
2022-12-03T06:38:15.090Z,35.78
2022-12-03T06:40:42.542Z,29.90
2022-12-03T06:43:10.056Z,31.90
2022-12-03T06:45:37.623Z,31.45
2022-12-03T06:48:05.443Z,35.20
2022-12-03T06:50:32.884Z,29.48
2022-12-03T06:53:00.297Z,32.70
2022-12-03T06:55:28.212Z,36.38
2022-12-03T06:57:55.693Z,31.20
2022-12-03T07:00:23.198Z,34.47
2022-12-03T07:02:51.812Z,31.55
2022-12-03T07:05:20.015Z,29.50
2022-12-03T07:07:52.073Z,24.40
2022-12-03T07:10:19.751Z,25.90
2022-12-03T07:12:47.237Z,32.97
2022-12-03T07:15:14.836Z,27.88
2022-12-03T07:17:42.901Z,27.17
2022-12-03T07:20:11.075Z,26.65
2022-12-03T07:22:38.523Z,28.65
2022-12-03T07:25:06.766Z,28.85
2022-12-03T07:27:34.311Z,27.65
2022-12-03T07:30:01.839Z,27.05
2022-12-03T07:32:29.347Z,26.33
2022-12-03T07:34:56.873Z,27.10
2022-12-03T07:37:24.334Z,26.80
2022-12-03T07:39:52.657Z,28.15
2022-12-03T07:42:20.612Z,26.95
2022-12-03T07:44:48.189Z,28.48
2022-12-03T07:47:15.812Z,22.00
2022-12-03T07:49:43.520Z,23.52
2022-12-03T07:52:11.138Z,22.02
2022-12-03T07:54:38.698Z,25.20
2022-12-03T07:57:07.054Z,24.55
2022-12-03T07:59:34.849Z,23.80
2022-12-03T08:02:02.776Z,21.17
2022-12-03T08:04:30.613Z,22.50
2022-12-03T08:06:58.405Z,23.55
2022-12-03T08:09:26.661Z,22.70
2022-12-03T08:11:54.345Z,21.98
2022-12-03T08:14:22.427Z,26.42
2022-12-03T08:16:51.284Z,25.38
2022-12-03T08:19:19.270Z,23.10
2022-12-03T08:21:47.196Z,19.30
2022-12-03T08:24:17.787Z,27.30
2022-12-03T08:26:47.904Z,25.73
2022-12-03T08:29:18.352Z,23.05
2022-12-03T08:31:55.416Z,23.48
2022-12-03T08:34:26.446Z,22.13
2022-12-03T08:37:06.177Z,21.58
2022-12-03T08:39:37.768Z,26.13
2022-12-03T08:42:27.245Z,22.38
2022-12-03T08:44:55.781Z,21.15
2022-12-03T08:47:24.976Z,22.17
2022-12-03T08:50:02.996Z,23.52
2022-12-03T08:52:33.310Z,22.15
2022-12-03T08:55:13.061Z,22.25
2022-12-03T08:57:41.330Z,21.23
2022-12-03T09:00:23.888Z,22.83
2022-12-03T09:02:53.788Z,20.80
2022-12-03T09:05:29.417Z,24.83
2022-12-03T09:07:57.113Z,19.77
2022-12-03T09:10:24.601Z,19.33
2022-12-03T09:12:52.159Z,21.35
2022-12-03T09:15:19.957Z,26.33
2022-12-03T09:17:50.620Z,20.05
2022-12-03T09:20:18.779Z,22.15
2022-12-03T09:22:46.329Z,20.10
2022-12-03T09:25:13.931Z,21.42
2022-12-03T09:27:42.713Z,20.00
2022-12-03T09:30:10.609Z,21.48
2022-12-03T09:32:38.024Z,18.60
2022-12-03T09:35:05.936Z,17.20
2022-12-03T09:37:33.459Z,21.33
2022-12-03T09:40:01.990Z,15.50
2022-12-03T09:42:29.440Z,21.33
2022-12-03T09:44:57.161Z,16.85
2022-12-03T09:47:25.274Z,19.85
2022-12-03T09:49:53.330Z,21.20
2022-12-03T09:52:27.392Z,23.33
2022-12-03T09:54:55.465Z,23.02
2022-12-03T09:57:23.219Z,22.75
2022-12-03T09:59:50.826Z,16.88
2022-12-03T10:02:28.410Z,22.58
2022-12-03T10:04:57.401Z,16.98
2022-12-03T10:07:26.239Z,17.95
2022-12-03T10:09:54.090Z,21.90
2022-12-03T10:12:24.542Z,20.45
2022-12-03T10:14:53.612Z,14.30
2022-12-03T10:17:21.679Z,15.73
2022-12-03T10:19:49.349Z,19.35
2022-12-03T10:22:17.169Z,17.85
2022-12-03T10:24:45.171Z,15.15
2022-12-03T10:27:24.536Z,15.90
2022-12-03T10:30:00.101Z,15.55
2022-12-03T10:32:43.003Z,22.60
2022-12-03T10:35:26.030Z,16.77
2022-12-03T10:38:04.559Z,20.42
2022-12-03T10:40:38.485Z,14.18
2022-12-03T10:43:14.964Z,20.90
2022-12-03T10:45:44.130Z,20.88
2022-12-03T10:48:19.017Z,18.85
2022-12-03T10:50:52.905Z,26.92
2022-12-03T10:53:28.489Z,22.23
2022-12-03T10:55:59.611Z,29.75
2022-12-03T10:58:29.801Z,20.10
2022-12-03T11:00:59.272Z,22.40
2022-12-03T11:03:30.621Z,22.60
2022-12-03T11:06:00.775Z,19.38
2022-12-03T11:08:32.663Z,17.77
2022-12-03T11:11:27.576Z,20.70
2022-12-03T11:14:00.675Z,25.30
2022-12-03T11:16:40.086Z,22.55
2022-12-03T11:19:13.658Z,21.40
2022-12-03T11:22:04.846Z,21.65
2022-12-03T11:24:33.958Z,14.98
2022-12-03T11:27:01.356Z,20.38
2022-12-03T11:29:59.189Z,18.63
2022-12-03T11:32:38.991Z,19.38
2022-12-03T11:35:23.294Z,18.17
2022-12-03T11:37:50.956Z,22.10
2022-12-03T11:40:18.663Z,19.25
2022-12-03T11:42:47.988Z,20.35
2022-12-03T11:45:23.644Z,18.88
2022-12-03T11:48:00.219Z,19.70
2022-12-03T11:50:36.112Z,16.83
2022-12-03T11:53:27.189Z,17.45
2022-12-03T11:56:11.134Z,18.27
2022-12-03T11:58:42.317Z,18.55
2022-12-03T12:01:10.002Z,19.60
2022-12-03T12:03:47.035Z,20.83
2022-12-03T12:06:17.744Z,20.90
2022-12-03T12:08:51.352Z,19.23
2022-12-03T12:11:41.444Z,17.83
2022-12-03T12:14:11.452Z,22.48
2022-12-03T12:16:51.316Z,19.17
2022-12-03T12:19:35.687Z,23.98
2022-12-03T12:22:19.842Z,22.80
2022-12-03T12:24:56.536Z,20.92
2022-12-03T12:27:35.010Z,19.50
2022-12-03T12:30:09.909Z,21.08
2022-12-03T12:32:47.835Z,25.75
2022-12-03T12:35:22.758Z,25.23
2022-12-03T12:38:11.391Z,22.70
2022-12-03T12:40:41.586Z,26.60
2022-12-03T12:43:16.467Z,30.20
2022-12-03T12:45:47.158Z,29.55
2022-12-03T12:48:25.844Z,33.50
2022-12-03T12:51:06.330Z,26.35
2022-12-03T12:53:35.635Z,33.25
2022-12-03T12:56:30.264Z,39.33
2022-12-03T12:59:19.289Z,35.20
2022-12-03T13:01:49.314Z,26.60
2022-12-03T13:04:23.853Z,25.75
2022-12-03T13:06:54.354Z,28.63
2022-12-03T13:09:25.906Z,29.52
2022-12-03T13:11:54.807Z,30.92
2022-12-03T13:14:25.079Z,37.35
2022-12-03T13:16:55.196Z,30.23
2022-12-03T13:19:26.173Z,33.55
2022-12-03T13:22:02.011Z,37.47
2022-12-03T13:24:44.515Z,33.53
2022-12-03T13:27:18.015Z,35.83
2022-12-03T13:29:58.844Z,31.30
2022-12-03T13:32:34.532Z,34.30
2022-12-03T13:35:05.322Z,28.52
2022-12-03T13:37:33.615Z,35.72
2022-12-03T13:40:18.875Z,36.17
2022-12-03T13:42:46.871Z,32.72
2022-12-03T13:45:14.647Z,29.02
2022-12-03T13:47:54.193Z,36.42
2022-12-03T13:50:27.548Z,32.15
2022-12-03T13:52:56.006Z,29.98
2022-12-03T13:55:27.738Z,30.95
2022-12-03T13:57:56.129Z,32.38
2022-12-03T14:00:24.782Z,36.08
2022-12-03T14:02:52.480Z,40.25
2022-12-03T14:05:21.435Z,41.63
2022-12-03T14:07:49.341Z,32.08
2022-12-03T14:10:17.001Z,40.80
2022-12-03T14:12:44.510Z,39.20
2022-12-03T14:15:12.050Z,36.45
2022-12-03T14:17:39.619Z,43.47
2022-12-03T14:20:08.177Z,38.75
2022-12-03T14:22:38.076Z,35.90
2022-12-03T14:25:06.984Z,39.63
2022-12-03T14:27:34.681Z,39.83
2022-12-03T14:30:02.786Z,41.25
2022-12-03T14:32:31.866Z,40.55
2022-12-03T14:34:59.326Z,37.50
2022-12-03T14:37:26.799Z,38.03
2022-12-03T14:39:54.682Z,40.38
2022-12-03T14:42:22.396Z,47.53
2022-12-03T14:44:51.666Z,40.55
2022-12-03T14:47:24.422Z,36.13
2022-12-03T14:49:52.866Z,34.28
2022-12-03T14:52:20.967Z,44.13
2022-12-03T14:54:48.567Z,34.25
2022-12-03T14:57:16.605Z,33.10
2022-12-03T14:59:45.951Z,38.00
2022-12-03T15:02:13.867Z,30.95
2022-12-03T15:04:42.017Z,35.08
2022-12-03T15:07:10.070Z,42.60
2022-12-03T15:09:37.715Z,33.65
2022-12-03T15:12:05.584Z,37.42
2022-12-03T15:14:33.229Z,39.33
2022-12-03T15:17:01.059Z,37.05
2022-12-03T15:19:28.661Z,39.88
2022-12-03T15:21:56.508Z,36.72
2022-12-03T15:24:24.229Z,39.65
2022-12-03T15:26:53.399Z,37.47
2022-12-03T15:29:21.571Z,38.53
2022-12-03T15:31:49.240Z,35.78
2022-12-03T15:34:22.120Z,40.15
2022-12-03T15:36:50.654Z,38.42
2022-12-03T15:39:18.614Z,34.55
2022-12-03T15:41:46.875Z,36.00
2022-12-03T15:44:14.338Z,40.15
2022-12-03T15:46:42.137Z,44.40
2022-12-03T15:49:09.876Z,41.83
2022-12-03T15:51:37.450Z,46.58
2022-12-03T15:54:05.409Z,36.55
2022-12-03T15:56:37.529Z,35.97
2022-12-03T15:59:05.292Z,39.88
2022-12-03T16:01:33.148Z,34.92
2022-12-03T16:04:00.871Z,40.03
2022-12-03T16:06:28.349Z,38.97
2022-12-03T16:08:55.907Z,39.47
2022-12-03T16:11:23.535Z,43.90
2022-12-03T16:13:51.081Z,39.63
2022-12-03T16:16:18.783Z,41.35
2022-12-03T16:18:46.320Z,39.80
2022-12-03T16:21:13.837Z,41.22
2022-12-03T16:23:41.698Z,39.35
2022-12-03T16:26:09.345Z,41.60
2022-12-03T16:28:36.963Z,41.78
2022-12-03T16:31:04.668Z,47.15
2022-12-03T16:33:32.363Z,42.90
2022-12-03T16:36:00.092Z,43.53
2022-12-03T16:38:27.888Z,41.67
2022-12-03T16:40:55.779Z,42.28
2022-12-03T16:43:23.306Z,41.38
2022-12-03T16:46:03.001Z,44.97
2022-12-03T16:48:30.663Z,43.75
2022-12-03T16:50:58.206Z,52.25
2022-12-03T16:53:25.872Z,44.83
2022-12-03T16:55:53.414Z,46.97
2022-12-03T16:58:21.569Z,44.92
2022-12-03T17:00:49.755Z,51.67
2022-12-03T17:03:17.988Z,45.30
2022-12-03T17:05:46.635Z,46.42
2022-12-03T17:08:15.280Z,49.63
2022-12-03T17:10:43.803Z,50.55
2022-12-03T17:13:11.494Z,49.63
2022-12-03T17:15:40.163Z,45.25
2022-12-03T17:18:08.699Z,45.85
2022-12-03T17:20:36.831Z,44.67
2022-12-03T17:23:04.484Z,49.28
2022-12-03T17:25:32.115Z,45.05
2022-12-03T17:27:59.739Z,49.67
2022-12-03T17:30:27.569Z,48.08
2022-12-03T17:32:55.187Z,47.85
2022-12-03T17:35:22.754Z,48.63
2022-12-03T17:37:50.321Z,44.85
2022-12-03T17:40:18.337Z,42.13
2022-12-03T17:42:46.516Z,40.13
2022-12-03T17:45:14.375Z,36.80
2022-12-03T17:47:41.948Z,48.45
2022-12-03T17:50:09.894Z,43.92
2022-12-03T17:52:37.464Z,42.20
2022-12-03T17:55:19.212Z,39.50
2022-12-03T17:57:51.374Z,41.15
2022-12-03T18:00:19.254Z,46.05
2022-12-03T18:02:46.756Z,43.55
2022-12-03T18:05:14.653Z,42.63
2022-12-03T18:07:57.475Z,45.22
2022-12-03T18:10:25.482Z,38.45
2022-12-03T18:12:58.294Z,46.88
2022-12-03T18:15:29.617Z,38.88
2022-12-03T18:17:57.382Z,50.60
2022-12-03T18:20:25.037Z,42.92
2022-12-03T18:22:52.617Z,43.50
2022-12-03T18:25:20.433Z,46.88
2022-12-03T18:27:48.073Z,45.13
2022-12-03T18:30:16.098Z,45.22
2022-12-03T18:32:43.708Z,46.00
2022-12-03T18:35:11.243Z,43.38
2022-12-03T18:37:39.151Z,43.45
2022-12-03T18:40:12.865Z,48.05
2022-12-03T18:42:40.969Z,41.70
2022-12-03T18:45:11.739Z,43.83
2022-12-03T18:47:39.652Z,50.22
2022-12-03T18:50:08.189Z,46.90
2022-12-03T18:52:35.853Z,41.22
2022-12-03T18:55:05.158Z,50.45
2022-12-03T18:57:32.859Z,47.17
2022-12-03T19:00:00.595Z,49.85
2022-12-03T19:05:15.827Z,45.90
2022-12-03T19:07:43.572Z,41.78
2022-12-03T19:10:11.991Z,48.28
2022-12-03T19:12:39.594Z,45.20
2022-12-03T19:15:07.787Z,50.45
2022-12-03T19:17:35.635Z,48.88
2022-12-03T19:20:04.622Z,49.42
2022-12-03T19:22:32.241Z,44.60
2022-12-03T19:24:59.795Z,46.65
2022-12-03T19:27:30.130Z,58.15
2022-12-03T19:29:58.326Z,44.03
2022-12-03T19:32:25.987Z,42.70
2022-12-03T19:34:53.664Z,42.35
2022-12-03T19:37:21.060Z,42.85
2022-12-03T19:39:52.771Z,43.33
2022-12-03T19:42:20.869Z,43.45
2022-12-03T19:44:48.529Z,43.80
2022-12-03T19:47:16.029Z,40.17
2022-12-03T19:49:43.468Z,45.33
2022-12-03T19:52:11.233Z,41.72
2022-12-03T19:54:38.704Z,42.03
2022-12-03T19:57:09.208Z,38.50
2022-12-03T19:59:36.738Z,37.75
2022-12-03T20:02:04.257Z,35.65
2022-12-03T20:04:31.829Z,40.88
2022-12-03T20:06:59.698Z,38.42
2022-12-03T20:09:27.337Z,35.58
2022-12-03T20:11:54.947Z,38.38
2022-12-03T20:14:22.911Z,37.35
2022-12-03T20:16:50.560Z,33.22
2022-12-03T20:19:18.485Z,36.38
2022-12-03T20:21:46.414Z,39.63
2022-12-03T20:24:16.471Z,35.42
2022-12-03T20:26:44.184Z,34.80
2022-12-03T20:29:11.751Z,37.90
2022-12-03T20:31:39.598Z,38.55
2022-12-03T20:34:07.302Z,36.83
2022-12-03T20:36:35.134Z,34.15
2022-12-03T20:39:05.585Z,40.97
2022-12-03T20:41:35.258Z,33.10
2022-12-03T20:44:03.792Z,39.35
2022-12-03T20:46:33.560Z,38.63
2022-12-03T20:49:01.905Z,38.03
2022-12-03T20:51:31.133Z,38.33
2022-12-03T20:54:00.306Z,44.72
2022-12-03T20:56:34.070Z,39.47
2022-12-03T20:59:08.142Z,38.22
2022-12-03T21:01:36.510Z,43.08
2022-12-03T21:04:05.915Z,42.08
2022-12-03T21:06:35.887Z,42.30
2022-12-03T21:09:06.117Z,37.00
2022-12-03T21:11:35.824Z,36.10
2022-12-03T21:14:04.368Z,41.58
2022-12-03T21:17:05.723Z,46.92
2022-12-03T21:19:22.853Z,39.33
2022-12-03T21:21:50.472Z,37.15
2022-12-03T21:24:18.041Z,40.55
2022-12-03T21:26:45.689Z,40.15
2022-12-03T21:29:13.329Z,43.38
2022-12-03T21:31:41.056Z,37.67
2022-12-03T21:34:09.052Z,44.40
2022-12-03T21:36:36.543Z,39.30
2022-12-03T21:39:05.278Z,39.17
2022-12-03T21:41:37.196Z,36.67
2022-12-03T21:44:04.960Z,39.35
2022-12-03T21:47:08.092Z,36.85
2022-12-03T21:49:20.462Z,42.58
2022-12-03T21:51:48.348Z,38.33
2022-12-03T21:54:16.028Z,42.75
2022-12-03T21:56:44.177Z,43.67
2022-12-03T21:59:11.757Z,45.47
2022-12-03T22:01:42.921Z,41.65
2022-12-03T22:04:11.627Z,60.88
2022-12-03T22:06:39.208Z,71.97
2022-12-03T22:09:06.874Z,66.57
2022-12-03T22:11:34.539Z,54.42
2022-12-03T22:14:04.690Z,62.05
2022-12-03T22:16:32.551Z,49.70
2022-12-03T22:19:00.106Z,54.40
2022-12-03T22:21:27.744Z,52.65
2022-12-03T22:23:56.297Z,53.53
2022-12-03T22:26:23.758Z,49.92
2022-12-03T22:28:51.753Z,47.67
2022-12-03T22:31:19.841Z,43.25
2022-12-03T22:33:49.650Z,44.70
2022-12-03T22:36:21.408Z,48.03
2022-12-03T22:38:50.950Z,50.25
2022-12-03T22:41:19.462Z,43.95
2022-12-03T22:43:47.422Z,42.65
2022-12-03T22:46:15.736Z,43.85
2022-12-03T22:48:45.228Z,42.50
2022-12-03T22:51:15.916Z,42.00
2022-12-03T22:53:43.721Z,44.35
2022-12-03T22:56:11.539Z,44.03
2022-12-03T22:58:40.357Z,39.67
2022-12-03T23:01:08.429Z,47.63
2022-12-03T23:03:36.638Z,43.50
2022-12-03T23:06:12.065Z,47.15
2022-12-03T23:08:40.043Z,44.05
2022-12-03T23:11:08.498Z,44.83
2022-12-03T23:13:36.205Z,44.63
2022-12-03T23:16:04.418Z,40.97
2022-12-03T23:18:32.854Z,48.05
2022-12-03T23:21:00.697Z,40.30
2022-12-03T23:23:28.735Z,46.47
2022-12-03T23:25:57.665Z,46.50
2022-12-03T23:28:26.271Z,45.03
2022-12-03T23:30:53.974Z,42.53
2022-12-03T23:33:21.573Z,44.78
2022-12-03T23:35:49.250Z,43.58
2022-12-03T23:38:17.340Z,43.53
2022-12-03T23:40:48.237Z,44.38
2022-12-03T23:43:16.713Z,41.45
2022-12-03T23:45:44.294Z,40.95
2022-12-03T23:48:12.958Z,43.50
2022-12-03T23:50:41.328Z,44.05
2022-12-03T23:53:09.130Z,39.90
2022-12-03T23:55:40.300Z,44.28
2022-12-03T23:58:07.888Z,46.85
